Litchfield, IL (62056)

9:22 PM CDT on March 29, 2015 (GMT -0500)
Old Quarry Trail | | Change Station
CLOSE
Current Station
Personal Weather Station
Location: Litchfield, IL
Elevation: 636 ft
Nearby Weather Stations

Elev 636 ft 39.18 °N, 89.59 °W | Updated 5 seconds ago

Scattered Clouds
Scattered Clouds
49.3 °F
Feels Like 49 °F
N
2.9
Wind Variable Wind from West
Gusts 3.0 mph

Today
High -- | Low -- °F
--% Chance of Precip.
Yesterday
High -- | Low -- °F
Precip. -- in
6:48 AM 7:19 PM
Waxing Gibbous, 76% visible
Pressure 30.01 in
Visibility 10.0 miles
Clouds Scattered Clouds 4800 ft
Windchill 49 °F
Dew Point 41 °F
Humidity 73%
Rainfall 0.00 in
Snow Depth Not available.
UV 0 out of 12
Pollen 5.30 out of 12
Air Quality Not available.
Flu Activity Not available.
METAR K3LF 300215Z AUTO 25006KT 10SM SCT048 07/03 A3001 RMK AO2 T00700032

More Conditions Fewer Conditions

Pressure 30.01 in
Visibility 10.0 miles
Clouds Scattered Clouds 4800 ft
Windchill 49 °F
Dew Point 41 °F
Humidity 73%
Rainfall 0.00 in
Snow Depth Not available.
UV 0 out of 12
Pollen 5.30 out of 12
Air Quality Not available.
Flu Activity Not available.
METAR K3LF 300215Z AUTO 25006KT 10SM SCT048 07/03 A3001 RMK AO2 T00700032

More Conditions Fewer Conditions

10-Day Weather Forecast

Almanac

Astronomy

Mar. 29, 2015 Rise Set
Actual Time
Civil Twilight
Nautical Twilight
Astronomical Twilight
Moon
Length of Visible Light
Length of Day
Tomorrow will be .
, % of the Moon is Illuminated

Today's Extremes

State Highs State Lows

Community

WunderPhotos

Upload Photos

1,809,414 photos uploaded!

WunderBlogs® & News

Nearby

Air Quality

  Air Quality AQ Index Pollutant
Not available.

Snow Depth

Station Depth Elevation

Earthquake Activity

City Distance Mag. Time & Date
Minimum magnitude displayed is 2.5.

Coastal Water Temperatures

Place Temperature

Stations

Nearby Weather Stations

Station Location Temp. Windchill Dew Point Humidity Wind Precip. Elev Updated Type